Terminal Aerodrome Forecast
Issued by NWS Topeka, KS

Home | Current Version | Previous Version | Graphics & Text | Print | Product List | Glossary On
Versions: 1 2 3 4 5 6 7 8 9 10 11 12
850
FTUS43 KTOP 250112 AAA
TAFTOP
TAF AMD
KTOP 250112Z 2501/2524 17009KT P6SM SCT250
     FM250500 16010KT P6SM BKN150 WS020/19045KT
      TEMPO 2509/2511 -SHRA
     FM251300 15011KT P6SM BKN090=

USA.gov is the U.S. government's official web portal to all federal, state and local government web resources and services.